Mobridge, SD

6:39 AM CST on February 01, 2015 (GMT -0600)
Mobridge Municipal | Change Station
CLOSE
Current Station
Airport
Location: Mobridge,
Elevation: 1716 ft
Nearby Weather Stations

Elev 1716 ft 45.55 °N, 100.41 °W | Updated 47 minutes ago

Snow
Snow
-3 °F
Feels Like -24 °F
N
16
Wind Variable Wind from North

Today
High -- | Low -- °F
--% Chance of Precip.
Yesterday
High -- | Low -- °F
Precip. -- in
8:02 AM 5:47 PM
Waxing Gibbous, 94% visible
Pressure 30.51 in
Visibility 6.0 miles
Clouds Mostly Cloudy 3400 ft
Windchill -24 °F
Dew Point -10 °F
Humidity 72%
Rainfall 0.02 in
Snow Depth Not available.
UV 0 out of 12
Pollen .10 out of 12
Air Quality Not available.
Flu Activity Not available.
METAR KMBG 011152Z AUTO 36014KT 6SM -SN BKN034 M19/M23 A3038 RMK AO2 SLP330 P0000 60002 70002 T11941233 11161 21194 53014

More Conditions Fewer Conditions

Pressure 30.51 in
Visibility 6.0 miles
Clouds Mostly Cloudy 3400 ft
Windchill -24 °F
Dew Point -10 °F
Humidity 72%
Rainfall 0.02 in
Snow Depth Not available.
UV 0 out of 12
Pollen .10 out of 12
Air Quality Not available.
Flu Activity Not available.
METAR KMBG 011152Z AUTO 36014KT 6SM -SN BKN034 M19/M23 A3038 RMK AO2 SLP330 P0000 60002 70002 T11941233 11161 21194 53014

More Conditions Fewer Conditions

10-Day Weather Forecast

Almanac

Astronomy

Feb. 01, 2015 Rise Set
Actual Time
Civil Twilight
Nautical Twilight
Astronomical Twilight
Moon
Length of Visible Light
Length of Day
Tomorrow will be .
, % of the Moon is Illuminated

Today's Extremes

State Highs State Lows

Community

WunderPhotos

Upload Photos

1,792,352 photos uploaded!

WunderBlogs® & News

Nearby

Air Quality

  Air Quality AQ Index Pollutant
Not available.

Snow Depth

Station Depth Elevation

Earthquake Activity

City Distance Mag. Time & Date
Minimum magnitude displayed is 2.5.

Coastal Water Temperatures

Place Temperature

Nearby Weather Stations